Terminal Aerodrome Forecast
Issued by NWS Twin Cities, MN

Home | Current Version | Previous Version | Graphics & Text | Print | Product List | Glossary On
Versions: 1 2 3 4 5 6 7 8 9 10 11 12 13 14 15 16 17 18 19 20 21 22 23 24 25 26 27 28
000
FTUS43 KMPX 240658 AAA
TAFMSP
TAF AMD
KMSP 240658Z 2407/2512 20007KT 6SM -SHRA BR SCT010 OVC020
      TEMPO 2407/2408 4SM BR BKN007
     FM240900 22005KT 5SM BR SCT007 OVC015
      TEMPO 2409/2412 4SM BR BKN009
     FM241400 26007KT P6SM FEW015 BKN025
     FM241600 29010KT P6SM FEW025 SCT200=

USA.gov is the U.S. government's official web portal to all federal, state and local government web resources and services.